createdAt,value
2022-12-08T00:01:09.112Z,35.60
2022-12-08T00:03:36.019Z,35.30
2022-12-08T00:06:22.628Z,28.42
2022-12-08T00:09:07.778Z,30.70
2022-12-08T00:11:34.367Z,30.15
2022-12-08T00:14:00.919Z,29.92
2022-12-08T00:16:27.353Z,32.70
2022-12-08T00:18:53.829Z,25.02
2022-12-08T00:21:20.243Z,29.95
2022-12-08T00:23:46.602Z,25.48
2022-12-08T00:26:12.965Z,29.75
2022-12-08T00:28:39.342Z,25.23
2022-12-08T00:31:10.115Z,26.92
2022-12-08T00:33:36.590Z,27.05
2022-12-08T00:36:10.194Z,29.05
2022-12-08T00:38:36.990Z,32.03
2022-12-08T00:41:04.218Z,33.33
2022-12-08T00:43:30.594Z,36.10
2022-12-08T00:45:56.976Z,40.25
2022-12-08T00:48:23.417Z,45.05
2022-12-08T00:50:49.900Z,45.92
2022-12-08T00:53:16.270Z,53.85
2022-12-08T00:55:43.332Z,54.67
2022-12-08T00:58:09.693Z,54.35
2022-12-08T01:00:36.075Z,59.20
2022-12-08T01:03:02.539Z,60.17
2022-12-08T01:05:28.971Z,59.10
2022-12-08T01:07:55.421Z,62.70
2022-12-08T01:10:21.853Z,64.82
2022-12-08T01:12:48.229Z,70.90
2022-12-08T01:15:14.628Z,66.55
2022-12-08T01:17:40.993Z,56.88
2022-12-08T01:20:07.937Z,57.22
2022-12-08T01:22:35.711Z,58.63
2022-12-08T01:25:02.778Z,60.78
2022-12-08T01:27:29.157Z,61.80
2022-12-08T01:29:55.524Z,56.10
2022-12-08T01:32:21.927Z,56.25
2022-12-08T01:34:48.350Z,54.35
2022-12-08T01:37:14.829Z,52.40
2022-12-08T01:39:41.228Z,54.13
2022-12-08T01:42:19.685Z,49.67
2022-12-08T01:44:45.980Z,51.15
2022-12-08T01:47:12.434Z,48.30
2022-12-08T01:49:38.823Z,49.90
2022-12-08T01:52:15.580Z,53.25
2022-12-08T01:54:48.649Z,48.63
2022-12-08T01:57:25.424Z,50.67
2022-12-08T01:59:55.188Z,50.42
2022-12-08T02:02:21.575Z,50.13
2022-12-08T02:04:47.978Z,47.33
2022-12-08T02:07:15.010Z,51.13
2022-12-08T02:09:41.661Z,44.63
2022-12-08T02:12:08.627Z,47.10
2022-12-08T02:14:35.269Z,46.40
2022-12-08T02:17:22.323Z,44.38
2022-12-08T02:20:14.939Z,49.38
2022-12-08T02:25:38.280Z,43.63
2022-12-08T02:28:44.925Z,44.00
2022-12-08T02:31:19.909Z,44.47
2022-12-08T02:34:10.200Z,44.67
2022-12-08T02:36:49.022Z,42.13
2022-12-08T02:39:21.402Z,42.67
2022-12-08T02:41:55.778Z,50.63
2022-12-08T02:44:30.116Z,44.53
2022-12-08T02:47:24.367Z,43.40
2022-12-08T02:49:50.770Z,44.55
2022-12-08T02:52:17.036Z,50.63
2022-12-08T02:54:47.707Z,49.92
2022-12-08T02:57:31.527Z,43.30
2022-12-08T03:00:21.481Z,45.97
2022-12-08T03:02:56.968Z,43.53
2022-12-08T03:05:32.524Z,50.85
2022-12-08T03:08:03.908Z,50.22
2022-12-08T03:10:36.011Z,49.72
2022-12-08T03:13:10.073Z,53.70
2022-12-08T03:15:37.378Z,49.33
2022-12-08T03:18:04.543Z,53.55
2022-12-08T03:20:32.925Z,50.65
2022-12-08T03:23:00.402Z,51.58
2022-12-08T03:25:30.922Z,55.60
2022-12-08T03:27:57.732Z,52.25
2022-12-08T03:30:24.110Z,55.20
2022-12-08T03:32:59.710Z,55.28
2022-12-08T03:35:28.525Z,52.92
2022-12-08T03:38:07.570Z,54.42
2022-12-08T03:40:34.418Z,48.92
2022-12-08T03:43:00.739Z,56.03
2022-12-08T03:45:27.107Z,56.13
2022-12-08T03:47:53.443Z,51.72
2022-12-08T03:50:19.777Z,58.72
2022-12-08T03:52:46.116Z,58.53
2022-12-08T03:55:12.480Z,63.40
2022-12-08T03:57:38.828Z,57.60
2022-12-08T04:00:07.167Z,58.65
2022-12-08T04:02:33.682Z,62.80
2022-12-08T04:05:00.039Z,57.95
2022-12-08T04:07:26.385Z,54.53
2022-12-08T04:09:52.720Z,62.83
2022-12-08T04:12:19.073Z,62.60
2022-12-08T04:14:45.402Z,62.33
2022-12-08T04:17:11.736Z,56.05
2022-12-08T04:19:38.058Z,68.35
2022-12-08T04:22:04.395Z,66.72
2022-12-08T04:24:30.716Z,67.13
2022-12-08T04:26:57.039Z,61.28
2022-12-08T04:29:23.485Z,64.60
2022-12-08T04:31:49.878Z,65.47
2022-12-08T04:34:16.227Z,66.78
2022-12-08T04:36:42.633Z,66.22
2022-12-08T04:39:09.039Z,64.05
2022-12-08T04:41:35.401Z,70.82
2022-12-08T04:44:01.754Z,63.10
2022-12-08T04:46:28.128Z,65.82
2022-12-08T04:48:54.592Z,66.45
2022-12-08T04:51:21.471Z,70.40
2022-12-08T04:53:48.210Z,72.50
2022-12-08T04:56:18.634Z,66.03
2022-12-08T04:58:45.554Z,69.47
2022-12-08T05:01:12.692Z,68.07
2022-12-08T05:03:39.314Z,62.22
2022-12-08T05:06:05.978Z,61.05
2022-12-08T05:08:32.436Z,56.42
2022-12-08T05:11:06.946Z,59.47
2022-12-08T05:13:33.601Z,60.80
2022-12-08T05:16:08.915Z,59.53
2022-12-08T05:18:35.911Z,60.28
2022-12-08T05:21:02.890Z,62.88
2022-12-08T05:23:29.254Z,63.55
2022-12-08T05:25:55.624Z,61.40
2022-12-08T05:31:08.470Z,57.90
2022-12-08T05:33:34.852Z,56.95
2022-12-08T05:36:01.221Z,62.10
2022-12-08T05:38:27.610Z,62.13
2022-12-08T05:40:53.950Z,62.05
2022-12-08T05:43:20.322Z,54.85
2022-12-08T05:45:46.789Z,56.67
2022-12-08T05:48:13.201Z,51.38
2022-12-08T05:50:39.899Z,53.30
2022-12-08T05:53:06.282Z,53.50
2022-12-08T05:55:32.656Z,50.72
2022-12-08T05:58:03.076Z,47.45
2022-12-08T06:00:34.740Z,41.38
2022-12-08T06:03:01.376Z,39.03
2022-12-08T06:05:27.888Z,41.13
2022-12-08T06:07:54.345Z,39.47
2022-12-08T06:10:20.754Z,44.25
2022-12-08T06:12:47.109Z,41.65
2022-12-08T06:16:25.242Z,41.38
2022-12-08T06:18:51.762Z,40.70
2022-12-08T06:21:18.551Z,46.60
2022-12-08T06:23:48.443Z,46.63
2022-12-08T06:26:15.720Z,51.22
2022-12-08T06:28:42.733Z,50.83
2022-12-08T06:31:25.542Z,50.10
2022-12-08T06:33:52.870Z,46.30
2022-12-08T06:36:21.644Z,51.67
2022-12-08T06:38:48.610Z,49.90
2022-12-08T06:41:15.176Z,51.53
2022-12-08T06:43:41.997Z,52.10
2022-12-08T06:46:11.278Z,51.83
2022-12-08T06:48:37.855Z,50.58
2022-12-08T06:51:12.254Z,51.15
2022-12-08T06:53:39.416Z,54.38
2022-12-08T06:56:06.437Z,52.80
2022-12-08T06:58:32.812Z,53.13
2022-12-08T07:01:07.051Z,54.60
2022-12-08T07:03:33.481Z,49.78
2022-12-08T07:06:03.792Z,46.33
2022-12-08T07:08:31.209Z,42.85
2022-12-08T07:10:57.659Z,49.35
2022-12-08T07:13:24.052Z,36.30
2022-12-08T07:15:50.379Z,36.20
2022-12-08T07:18:16.747Z,34.00
2022-12-08T07:20:43.079Z,30.67
2022-12-08T07:23:09.691Z,34.55
2022-12-08T07:25:36.022Z,30.42
2022-12-08T07:28:07.905Z,34.10
2022-12-08T07:30:34.284Z,27.55
2022-12-08T07:33:02.433Z,28.92
2022-12-08T07:35:28.769Z,29.33
2022-12-08T07:37:55.093Z,29.23
2022-12-08T07:40:21.423Z,34.38
2022-12-08T07:42:47.757Z,29.08
2022-12-08T07:45:14.178Z,32.15
2022-12-08T07:47:40.504Z,28.73
2022-12-08T07:50:07.900Z,31.17
2022-12-08T07:52:35.472Z,33.03
2022-12-08T07:55:02.038Z,35.03
2022-12-08T07:57:28.381Z,34.95
2022-12-08T07:59:54.713Z,37.83
2022-12-08T08:02:25.007Z,40.72
2022-12-08T08:04:52.729Z,38.65
2022-12-08T08:07:19.135Z,41.00
2022-12-08T08:09:45.701Z,37.03
2022-12-08T08:12:30.798Z,44.03
2022-12-08T08:14:58.210Z,40.78
2022-12-08T08:17:24.784Z,39.80
2022-12-08T08:19:51.299Z,37.45
2022-12-08T08:22:17.618Z,32.25
2022-12-08T08:24:45.244Z,29.75
2022-12-08T08:27:11.866Z,25.88
2022-12-08T08:29:38.210Z,34.05
2022-12-08T08:32:04.588Z,27.10
2022-12-08T08:34:31.044Z,27.70
2022-12-08T08:36:57.457Z,28.73
2022-12-08T08:39:23.910Z,27.42
2022-12-08T08:41:50.283Z,29.25
2022-12-08T08:44:16.639Z,30.23
2022-12-08T08:46:43.104Z,34.83
2022-12-08T08:49:09.519Z,40.90
2022-12-08T08:51:35.892Z,39.47
2022-12-08T08:54:02.251Z,41.55
2022-12-08T08:56:28.634Z,42.17
2022-12-08T08:58:55.079Z,43.60
2022-12-08T09:01:24.460Z,45.47
2022-12-08T09:03:51.224Z,44.78
2022-12-08T09:06:18.076Z,39.97
2022-12-08T09:08:45.007Z,37.03
2022-12-08T09:11:11.849Z,39.30
2022-12-08T09:13:38.420Z,38.95
2022-12-08T09:16:06.320Z,43.15
2022-12-08T09:18:32.730Z,35.75
2022-12-08T09:21:12.950Z,36.15
2022-12-08T09:23:39.814Z,33.35
2022-12-08T09:26:06.642Z,37.92
2022-12-08T09:28:33.475Z,41.83
2022-12-08T09:31:00.209Z,35.15
2022-12-08T09:33:26.681Z,35.40
2022-12-08T09:35:53.043Z,33.50
2022-12-08T09:38:19.409Z,32.60
2022-12-08T09:40:53.522Z,32.00
2022-12-08T09:43:22.825Z,29.77
2022-12-08T09:45:51.593Z,28.17
2022-12-08T09:48:24.333Z,28.67
2022-12-08T09:50:54.309Z,32.25
2022-12-08T09:53:36.636Z,31.92
2022-12-08T09:56:08.898Z,29.65
2022-12-08T09:58:57.927Z,27.40
2022-12-08T10:01:28.561Z,28.20
2022-12-08T10:03:55.991Z,31.10
2022-12-08T10:06:59.904Z,26.13
2022-12-08T10:09:50.197Z,27.13
2022-12-08T10:12:51.979Z,25.30
2022-12-08T10:15:33.426Z,23.83
2022-12-08T10:18:04.402Z,26.77
2022-12-08T10:20:39.986Z,28.20
2022-12-08T10:23:15.548Z,27.00
2022-12-08T10:25:46.331Z,26.77
2022-12-08T10:28:12.761Z,28.63
2022-12-08T10:30:39.290Z,26.95
2022-12-08T10:33:10.556Z,28.63
2022-12-08T10:35:49.105Z,26.55
2022-12-08T10:38:36.089Z,27.25
2022-12-08T10:41:11.688Z,28.20
2022-12-08T10:43:44.834Z,27.70
2022-12-08T10:46:13.458Z,26.23
2022-12-08T10:48:57.425Z,28.15
2022-12-08T10:51:29.741Z,29.20
2022-12-08T10:56:26.826Z,34.42
2022-12-08T10:59:17.495Z,31.88
2022-12-08T11:01:51.819Z,37.95
2022-12-08T11:04:20.612Z,36.53
2022-12-08T11:06:47.710Z,37.13
2022-12-08T11:09:17.036Z,34.65
2022-12-08T11:12:17.950Z,37.00
2022-12-08T11:14:44.176Z,38.50
2022-12-08T11:17:13.933Z,35.47
2022-12-08T11:19:45.426Z,38.08
2022-12-08T11:22:22.294Z,37.15
2022-12-08T11:24:58.439Z,35.63
2022-12-08T11:27:24.831Z,38.83
2022-12-08T11:29:51.410Z,37.22
2022-12-08T11:32:17.738Z,35.95
2022-12-08T11:34:57.481Z,35.85
2022-12-08T11:37:34.435Z,37.65
2022-12-08T11:40:10.402Z,37.63
2022-12-08T11:42:52.091Z,35.15
2022-12-08T11:45:27.406Z,35.45
2022-12-08T11:48:17.591Z,36.97
2022-12-08T11:50:51.391Z,37.33
2022-12-08T11:53:51.451Z,35.28
2022-12-08T11:56:32.468Z,33.20
2022-12-08T11:59:10.780Z,32.25
2022-12-08T12:01:42.386Z,34.47
2022-12-08T12:04:36.710Z,35.55
2022-12-08T12:07:24.546Z,32.50
2022-12-08T12:10:07.910Z,31.20
2022-12-08T12:12:49.773Z,32.83
2022-12-08T12:15:37.837Z,26.58
2022-12-08T12:18:26.051Z,27.98
2022-12-08T12:20:58.571Z,25.50
2022-12-08T12:23:40.422Z,27.42
2022-12-08T12:26:08.724Z,24.02
2022-12-08T12:28:56.416Z,23.67
2022-12-08T12:31:31.319Z,23.92
2022-12-08T12:34:07.418Z,26.83
2022-12-08T12:36:46.703Z,25.33
2022-12-08T12:39:13.774Z,24.50
2022-12-08T12:41:50.736Z,24.77
2022-12-08T12:44:29.138Z,30.15
2022-12-08T12:47:00.698Z,28.70
2022-12-08T12:49:45.988Z,28.90
2022-12-08T12:52:15.223Z,27.40
2022-12-08T12:55:10.220Z,31.45
2022-12-08T12:57:50.808Z,30.65
2022-12-08T13:00:19.497Z,32.13
2022-12-08T13:02:48.998Z,31.17
2022-12-08T13:05:23.228Z,28.10
2022-12-08T13:07:55.543Z,31.25
2022-12-08T13:13:05.519Z,28.00
2022-12-08T13:16:18.774Z,30.95
2022-12-08T13:19:13.156Z,31.35
2022-12-08T13:21:39.713Z,28.75
2022-12-08T13:24:35.594Z,31.50
2022-12-08T13:27:04.958Z,30.02
2022-12-08T13:29:32.707Z,29.70
2022-12-08T13:32:03.555Z,30.75
2022-12-08T13:34:45.340Z,29.65
2022-12-08T13:37:11.641Z,30.70
2022-12-08T13:39:40.916Z,34.83
2022-12-08T13:42:35.095Z,31.73
2022-12-08T13:45:48.680Z,33.70
2022-12-08T13:49:52.716Z,37.50
2022-12-08T13:57:33.127Z,33.85
2022-12-08T14:00:08.696Z,31.60
2022-12-08T14:02:47.340Z,33.17
2022-12-08T14:05:18.557Z,32.47
2022-12-08T14:07:47.200Z,33.53
2022-12-08T14:10:18.200Z,33.35
2022-12-08T14:12:46.958Z,33.67
2022-12-08T14:15:14.368Z,31.83
2022-12-08T14:17:41.382Z,32.42
2022-12-08T14:20:27.392Z,34.63
2022-12-08T14:22:53.909Z,33.40
2022-12-08T14:25:21.561Z,34.85
2022-12-08T14:27:48.222Z,31.45
2022-12-08T14:30:14.729Z,31.20
2022-12-08T14:32:46.707Z,32.63
2022-12-08T14:35:23.497Z,34.13
2022-12-08T14:37:51.570Z,36.53
2022-12-08T14:40:37.203Z,36.85
2022-12-08T14:43:15.254Z,41.60
2022-12-08T14:45:44.560Z,42.08
2022-12-08T14:48:38.815Z,45.35
2022-12-08T14:51:07.502Z,43.55
2022-12-08T14:53:37.542Z,45.30
2022-12-08T14:56:47.323Z,43.25
2022-12-08T14:59:15.012Z,46.90
2022-12-08T15:01:42.889Z,44.03
2022-12-08T15:04:12.259Z,43.80
2022-12-08T15:06:54.235Z,46.13
2022-12-08T15:09:37.173Z,45.28
2022-12-08T15:12:15.724Z,43.42
2022-12-08T15:14:44.120Z,43.58
2022-12-08T15:17:53.772Z,43.13
2022-12-08T15:20:35.864Z,44.15
2022-12-08T15:23:02.537Z,44.97
2022-12-08T15:25:29.010Z,45.55
2022-12-08T15:27:57.805Z,42.47
2022-12-08T15:30:28.514Z,45.20
2022-12-08T15:32:56.036Z,50.20
2022-12-08T15:35:22.683Z,45.92
2022-12-08T15:37:49.094Z,45.35
2022-12-08T15:40:18.690Z,45.75
2022-12-08T15:42:45.400Z,44.55
2022-12-08T15:45:13.710Z,44.03
2022-12-08T15:47:40.155Z,42.13
2022-12-08T15:50:07.567Z,45.65
2022-12-08T15:52:36.765Z,43.00
2022-12-08T15:55:03.167Z,42.22
2022-12-08T15:58:04.416Z,42.83
2022-12-08T16:00:50.510Z,40.40
2022-12-08T16:04:19.920Z,36.75
2022-12-08T16:09:12.249Z,40.42
2022-12-08T16:12:06.706Z,40.25
2022-12-08T16:15:39.178Z,41.30
2022-12-08T16:17:21.279Z,41.78
2022-12-08T16:19:47.648Z,42.42
2022-12-08T16:22:54.610Z,39.05
2022-12-08T16:25:18.909Z,41.28
2022-12-08T16:28:17.259Z,39.67
2022-12-08T16:30:33.664Z,42.13
2022-12-08T16:33:00.045Z,38.47
2022-12-08T16:35:26.393Z,43.65
2022-12-08T16:37:52.764Z,39.08
2022-12-08T16:40:19.171Z,38.28
2022-12-08T16:42:49.850Z,39.55
2022-12-08T16:45:17.324Z,41.65
2022-12-08T16:47:49.755Z,39.30
2022-12-08T16:50:19.100Z,36.63
2022-12-08T16:52:46.411Z,41.08
2022-12-08T16:55:15.335Z,40.33
2022-12-08T16:57:42.104Z,41.35
2022-12-08T17:00:11.184Z,40.85
2022-12-08T17:02:37.605Z,39.30
2022-12-08T17:05:04.524Z,40.08
2022-12-08T17:07:30.940Z,38.92
2022-12-08T17:09:58.197Z,39.78
2022-12-08T17:12:24.594Z,43.50
2022-12-08T17:14:50.946Z,41.38
2022-12-08T17:17:17.336Z,42.33
2022-12-08T17:19:43.756Z,40.97
2022-12-08T17:22:10.136Z,41.67
2022-12-08T17:24:37.326Z,43.53
2022-12-08T17:27:04.294Z,42.95
2022-12-08T17:29:31.799Z,46.95
2022-12-08T17:31:58.373Z,44.42
2022-12-08T17:34:24.879Z,45.47
2022-12-08T17:36:51.664Z,45.58
2022-12-08T17:39:19.154Z,41.65
2022-12-08T17:41:46.184Z,46.50
2022-12-08T17:44:14.586Z,44.35
2022-12-08T17:46:45.259Z,45.55
2022-12-08T17:49:18.710Z,44.00
2022-12-08T17:51:49.197Z,40.67
2022-12-08T17:54:16.842Z,39.63
2022-12-08T17:56:43.642Z,43.92
2022-12-08T17:59:10.774Z,39.65
2022-12-08T18:01:37.452Z,45.72
2022-12-08T18:04:05.308Z,46.70
2022-12-08T18:06:31.923Z,48.70
2022-12-08T18:08:59.406Z,49.47
2022-12-08T18:11:26.793Z,54.92
2022-12-08T18:13:53.975Z,51.58
2022-12-08T18:16:23.396Z,53.67
2022-12-08T18:18:49.941Z,57.17
2022-12-08T18:21:23.007Z,56.95
2022-12-08T18:23:50.527Z,53.72
2022-12-08T18:26:16.926Z,52.95
2022-12-08T18:28:43.763Z,52.58
2022-12-08T18:31:11.661Z,50.55
2022-12-08T18:33:39.853Z,51.13
2022-12-08T18:36:10.773Z,47.65
2022-12-08T18:38:38.109Z,54.22
2022-12-08T18:41:09.800Z,52.75
2022-12-08T18:43:36.872Z,53.35
2022-12-08T18:46:04.700Z,52.85
2022-12-08T18:48:31.112Z,44.63
2022-12-08T18:50:57.453Z,52.55
2022-12-08T18:53:23.818Z,50.50
2022-12-08T18:55:50.938Z,54.17
2022-12-08T18:58:17.865Z,53.75
2022-12-08T19:00:44.273Z,51.42
2022-12-08T19:03:10.858Z,54.95
2022-12-08T19:05:37.498Z,52.75
2022-12-08T19:08:03.979Z,51.70
2022-12-08T19:10:32.047Z,51.65
2022-12-08T19:12:58.384Z,48.42
2022-12-08T19:15:24.753Z,50.00
2022-12-08T19:17:51.093Z,50.00
2022-12-08T19:20:17.598Z,50.63
2022-12-08T19:22:43.938Z,47.40
2022-12-08T19:25:10.415Z,48.05
2022-12-08T19:27:36.786Z,44.80
2022-12-08T19:30:04.053Z,45.33
2022-12-08T19:32:30.949Z,45.55
2022-12-08T19:34:57.315Z,47.55
2022-12-08T19:37:23.661Z,51.50
2022-12-08T19:40:09.063Z,50.72
2022-12-08T19:42:54.338Z,50.70
2022-12-08T19:45:22.155Z,53.80
2022-12-08T19:47:48.923Z,52.22
2022-12-08T19:50:34.980Z,49.53
2022-12-08T19:53:11.928Z,53.92
2022-12-08T19:55:38.679Z,51.30
2022-12-08T19:58:06.788Z,52.95
2022-12-08T20:00:34.111Z,54.63
2022-12-08T20:03:02.074Z,59.72
2022-12-08T20:05:30.131Z,58.35
2022-12-08T20:07:56.698Z,56.85
2022-12-08T20:10:29.717Z,56.30
2022-12-08T20:13:16.517Z,56.58
2022-12-08T20:15:44.867Z,52.00
2022-12-08T20:18:12.634Z,52.58
2022-12-08T20:20:40.029Z,49.65
2022-12-08T20:23:06.427Z,50.25
2022-12-08T20:25:33.124Z,50.15
2022-12-08T20:27:59.577Z,50.78
2022-12-08T20:30:25.930Z,54.65
2022-12-08T20:32:52.272Z,49.78
2022-12-08T20:35:18.685Z,51.63
2022-12-08T20:37:45.064Z,51.13
2022-12-08T20:40:11.673Z,52.97
2022-12-08T20:42:38.055Z,60.20
2022-12-08T20:45:07.173Z,56.85
2022-12-08T20:47:33.673Z,59.58
2022-12-08T20:50:00.299Z,57.70
2022-12-08T20:52:26.746Z,58.90
2022-12-08T20:54:53.243Z,61.22
2022-12-08T20:57:19.893Z,52.28
2022-12-08T20:59:46.338Z,53.75
2022-12-08T21:02:12.884Z,48.08
2022-12-08T21:04:39.517Z,51.70
2022-12-08T21:07:08.625Z,57.05
2022-12-08T21:09:36.207Z,59.42
2022-12-08T21:12:02.835Z,67.00
2022-12-08T21:14:29.413Z,60.35
2022-12-08T21:16:56.190Z,59.35
2022-12-08T21:19:22.732Z,61.55
2022-12-08T21:21:50.499Z,65.97
2022-12-08T21:24:18.075Z,72.78
2022-12-08T21:26:44.824Z,65.78
2022-12-08T21:29:12.116Z,68.43
2022-12-08T21:31:38.713Z,64.35
2022-12-08T21:34:05.312Z,70.63
2022-12-08T21:36:32.005Z,66.07
2022-12-08T21:39:00.736Z,58.17
2022-12-08T21:41:45.883Z,57.58
2022-12-08T21:44:14.958Z,63.30
2022-12-08T21:46:42.344Z,62.70
2022-12-08T21:49:08.953Z,61.78
2022-12-08T21:51:37.817Z,64.05
2022-12-08T21:54:04.957Z,54.58
2022-12-08T21:56:31.496Z,54.13
2022-12-08T21:58:58.309Z,51.95
2022-12-08T22:01:24.851Z,54.25
2022-12-08T22:03:51.458Z,61.33
2022-12-08T22:06:18.007Z,58.75
2022-12-08T22:08:44.759Z,61.53
2022-12-08T22:11:12.093Z,66.00
2022-12-08T22:13:40.527Z,66.22
2022-12-08T22:16:11.448Z,72.72
2022-12-08T22:18:38.279Z,64.63
2022-12-08T22:21:09.811Z,64.38
2022-12-08T22:23:36.497Z,62.25
2022-12-08T22:26:04.081Z,62.58
2022-12-08T22:28:33.518Z,62.63
2022-12-08T22:31:00.908Z,73.55
2022-12-08T22:33:30.511Z,68.82
2022-12-08T22:35:58.152Z,65.78
2022-12-08T22:38:25.187Z,69.32
2022-12-08T22:40:52.264Z,72.78
2022-12-08T22:43:19.190Z,74.93
2022-12-08T22:45:45.763Z,79.03
2022-12-08T22:48:12.463Z,73.78
2022-12-08T22:50:39.106Z,74.47
2022-12-08T22:53:05.852Z,68.75
2022-12-08T22:55:32.766Z,86.07
2022-12-08T22:57:59.368Z,76.03
2022-12-08T23:00:25.739Z,74.60
2022-12-08T23:02:52.166Z,75.10
2022-12-08T23:05:18.855Z,72.15
2022-12-08T23:07:45.454Z,75.57
2022-12-08T23:10:12.221Z,73.47
2022-12-08T23:12:38.952Z,69.80
2022-12-08T23:15:06.048Z,70.95
2022-12-08T23:17:32.512Z,67.88
2022-12-08T23:19:58.938Z,69.45
2022-12-08T23:22:25.372Z,68.40
2022-12-08T23:24:51.867Z,66.13
2022-12-08T23:27:18.266Z,64.47
2022-12-08T23:29:44.891Z,62.63
2022-12-08T23:32:11.311Z,65.88
2022-12-08T23:34:37.970Z,59.75
2022-12-08T23:37:04.447Z,65.00
2022-12-08T23:39:30.836Z,61.10
2022-12-08T23:41:57.363Z,57.97
2022-12-08T23:44:23.945Z,57.28
2022-12-08T23:46:50.531Z,59.78
2022-12-08T23:49:17.218Z,58.60
2022-12-08T23:51:43.674Z,49.90
2022-12-08T23:54:10.074Z,59.13
2022-12-08T23:56:36.420Z,59.03
2022-12-08T23:59:02.787Z,63.00
